Time;durP1;ratioP1;P1;durP2;ratioP2;P2;SDS_P1;SDS_P2;PMS_P1;PMS_P2;Temp;Humidity;BMP_temperature;BMP_pressure;BME280_temperature;BME280_humidity;BME280_pressure;Samples;Min_cycle;Max_cycle;Signal;HPM_P1;HPM_P2
2023/06/29 00:01:00;;;;;;;18.25;14.73;;;20.20;99.90;;;;;;5033091;28;20522;-64
2023/06/29 00:03:27;;;;;;;20.35;14.20;;;20.10;99.90;;;;;;5033012;28;20171;-63
2023/06/29 00:05:55;;;;;;;21.25;14.48;;;20.10;99.90;;;;;;5033109;28;20676;-64
2023/06/29 00:08:26;;;;;;;17.35;15.48;;;20.00;99.90;;;;;;5033148;28;20655;-63
2023/06/29 00:10:52;;;;;;;19.58;15.13;;;20.10;99.90;;;;;;5033196;28;20208;-64
2023/06/29 00:13:19;;;;;;;17.48;15.30;;;20.00;99.90;;;;;;5033045;28;20223;-63
2023/06/29 00:15:45;;;;;;;19.08;15.30;;;20.00;99.90;;;;;;5032838;28;20176;-63
2023/06/29 00:18:13;;;;;;;19.63;15.10;;;19.90;99.90;;;;;;5033124;28;20642;-63
2023/06/29 00:20:39;;;;;;;19.25;15.57;;;19.90;99.90;;;;;;5032990;28;20214;-64
2023/06/29 00:23:05;;;;;;;19.52;15.73;;;19.90;99.90;;;;;;5033010;28;20206;-64
2023/06/29 00:25:32;;;;;;;19.67;15.88;;;19.80;99.90;;;;;;5032878;28;20208;-63
2023/06/29 00:27:58;;;;;;;18.13;16.05;;;19.70;99.90;;;;;;5032803;28;20184;-63
2023/06/29 00:30:23;;;;;;;18.92;16.10;;;19.70;99.90;;;;;;5032683;28;20187;-63
2023/06/29 00:32:49;;;;;;;23.77;17.30;;;19.70;99.90;;;;;;5033021;28;20180;-64
2023/06/29 00:35:15;;;;;;;19.58;16.98;;;19.60;99.90;;;;;;5032992;28;20178;-63
2023/06/29 00:37:42;;;;;;;21.58;16.33;;;19.60;99.90;;;;;;5034778;28;20257;-64
2023/06/29 00:40:09;;;;;;;21.10;17.42;;;19.60;99.90;;;;;;5036620;28;20172;-63
2023/06/29 00:42:35;;;;;;;19.58;16.50;;;19.60;99.90;;;;;;5036547;28;20218;-65
2023/06/29 00:45:02;;;;;;;19.50;16.90;;;19.60;99.90;;;;;;5036426;28;20176;-65
2023/06/29 00:47:29;;;;;;;19.75;17.10;;;19.60;99.90;;;;;;5036299;28;20588;-65
2023/06/29 00:49:56;;;;;;;22.10;17.60;;;19.60;99.90;;;;;;5036519;28;20175;-63
2023/06/29 00:52:23;;;;;;;19.15;17.13;;;19.50;99.90;;;;;;5018954;28;20172;-63
2023/06/29 00:54:49;;;;;;;22.40;18.08;;;19.50;99.90;;;;;;5036295;28;20222;-65
2023/06/29 00:57:15;;;;;;;20.65;17.00;;;19.50;99.90;;;;;;5036238;28;20180;-63
2023/06/29 00:59:41;;;;;;;19.45;17.38;;;19.50;99.90;;;;;;5036158;28;20264;-63
2023/06/29 01:02:08;;;;;;;21.58;18.92;;;19.50;99.90;;;;;;5036328;28;20263;-63
2023/06/29 01:04:36;;;;;;;22.60;18.38;;;19.60;99.90;;;;;;5036240;28;20234;-64
2023/06/29 01:07:11;;;;;;;20.40;18.27;;;19.60;99.90;;;;;;5036042;28;20211;-63
2023/06/29 01:09:38;;;;;;;20.58;18.05;;;19.70;99.90;;;;;;5036088;28;20254;-63
2023/06/29 01:12:05;;;;;;;21.02;17.58;;;19.50;99.90;;;;;;5035879;28;20215;-63
2023/06/29 01:14:32;;;;;;;23.48;19.55;;;19.60;99.90;;;;;;5036188;28;20172;-63
2023/06/29 01:16:59;;;;;;;20.85;18.63;;;19.50;99.90;;;;;;5035817;28;20238;-63
2023/06/29 01:19:29;;;;;;;21.08;17.58;;;19.50;99.90;;;;;;5035988;28;20379;-63
2023/06/29 01:22:12;;;;;;;21.80;18.83;;;19.40;99.90;;;;;;5035819;28;20195;-64
2023/06/29 01:24:41;;;;;;;22.05;18.48;;;19.50;99.90;;;;;;5035680;28;20183;-65
2023/06/29 01:27:08;;;;;;;21.75;18.65;;;19.50;99.90;;;;;;5035754;28;20261;-65
2023/06/29 01:29:34;;;;;;;20.65;18.45;;;19.40;99.90;;;;;;5035807;28;20251;-63
2023/06/29 01:32:03;;;;;;;21.60;18.50;;;19.30;99.90;;;;;;5035733;28;20199;-64
2023/06/29 01:34:34;;;;;;;21.58;19.00;;;19.20;99.90;;;;;;5035551;28;20652;-64
2023/06/29 01:37:06;;;;;;;23.05;19.25;;;19.20;99.90;;;;;;5035517;28;20186;-63
2023/06/29 01:39:43;;;;;;;23.67;18.80;;;19.30;99.90;;;;;;5035802;28;20275;-64
2023/06/29 01:42:10;;;;;;;22.88;18.60;;;19.30;99.90;;;;;;5035658;28;20257;-63
2023/06/29 01:44:36;;;;;;;21.73;19.00;;;19.30;99.90;;;;;;5035414;28;20359;-63
2023/06/29 01:47:03;;;;;;;23.83;19.33;;;19.30;99.90;;;;;;5035340;28;20314;-63
2023/06/29 01:49:29;;;;;;;22.83;19.65;;;19.30;99.90;;;;;;5034278;28;20168;-63
2023/06/29 01:51:54;;;;;;;24.17;19.77;;;19.20;99.90;;;;;;5035468;28;20787;-63
2023/06/29 01:54:20;;;;;;;21.98;18.92;;;19.20;99.90;;;;;;5035393;28;20202;-63
2023/06/29 01:56:45;;;;;;;22.63;19.58;;;19.20;99.90;;;;;;5035166;28;20267;-63
2023/06/29 01:59:11;;;;;;;21.85;18.50;;;19.20;99.90;;;;;;5035371;28;20180;-64
2023/06/29 02:01:37;;;;;;;25.63;19.58;;;19.10;99.90;;;;;;5035143;28;20172;-63
2023/06/29 02:04:03;;;;;;;24.15;20.48;;;19.10;99.90;;;;;;5035261;28;20210;-64
2023/06/29 02:06:29;;;;;;;24.13;20.73;;;19.10;99.90;;;;;;5017317;28;20549;-64
2023/06/29 02:08:54;;;;;;;22.73;19.88;;;19.00;99.90;;;;;;5034950;28;20180;-63
2023/06/29 02:11:20;;;;;;;23.23;20.38;;;19.00;99.90;;;;;;5035067;28;20180;-63
2023/06/29 02:13:47;;;;;;;22.95;20.10;;;19.00;99.90;;;;;;5034859;28;20183;-63
2023/06/29 02:16:13;;;;;;;25.00;19.20;;;19.10;99.90;;;;;;5034743;28;20657;-63
2023/06/29 02:18:38;;;;;;;23.08;20.48;;;19.10;99.90;;;;;;5034513;28;20227;-63
2023/06/29 02:21:04;;;;;;;23.20;19.90;;;19.00;99.90;;;;;;5034669;28;20183;-64
2023/06/29 02:23:30;;;;;;;22.88;20.15;;;19.00;99.90;;;;;;5034779;28;20180;-63
2023/06/29 02:25:55;;;;;;;21.98;18.90;;;18.90;99.90;;;;;;5034744;28;20561;-63
2023/06/29 02:28:21;;;;;;;22.17;18.92;;;19.00;99.90;;;;;;5034721;28;20203;-63
2023/06/29 02:30:47;;;;;;;22.63;19.17;;;19.00;99.90;;;;;;5034624;28;20530;-63
2023/06/29 02:33:12;;;;;;;21.33;18.48;;;19.00;99.90;;;;;;5034390;28;20183;-63
2023/06/29 02:35:38;;;;;;;21.75;19.33;;;19.00;99.90;;;;;;5034343;28;20203;-64
2023/06/29 02:38:03;;;;;;;22.05;18.90;;;19.00;99.90;;;;;;5034409;28;20259;-63
2023/06/29 02:40:29;;;;;;;20.80;18.55;;;19.00;99.90;;;;;;5034530;28;20183;-63
2023/06/29 02:42:55;;;;;;;23.52;18.95;;;19.00;99.90;;;;;;5034257;28;20218;-63
2023/06/29 02:45:20;;;;;;;21.70;17.95;;;19.00;99.90;;;;;;5034234;28;20191;-63
2023/06/29 02:47:46;;;;;;;24.45;19.58;;;19.10;99.90;;;;;;5034115;28;20184;-63
2023/06/29 02:50:11;;;;;;;22.52;20.13;;;19.10;99.90;;;;;;5034054;28;20211;-63
2023/06/29 02:52:37;;;;;;;22.75;19.20;;;19.10;99.90;;;;;;5034295;28;20266;-64
2023/06/29 02:55:03;;;;;;;22.75;19.20;;;19.20;99.90;;;;;;5034208;28;20184;-63
2023/06/29 02:57:29;;;;;;;23.33;19.60;;;19.30;99.90;;;;;;5034185;28;20180;-63
2023/06/29 02:59:54;;;;;;;21.55;18.92;;;19.30;99.90;;;;;;5033899;28;20176;-63
2023/06/29 03:02:20;;;;;;;23.83;19.42;;;19.30;99.90;;;;;;5033963;28;20176;-64
2023/06/29 03:04:45;;;;;;;22.83;19.42;;;19.30;99.90;;;;;;5033793;28;20629;-63
2023/06/29 03:07:11;;;;;;;24.92;19.73;;;19.30;99.90;;;;;;5033794;28;20215;-64
2023/06/29 03:09:37;;;;;;;23.52;20.85;;;19.30;99.90;;;;;;5034001;28;20176;-63
2023/06/29 03:12:02;;;;;;;24.45;21.33;;;19.30;99.90;;;;;;5033940;28;20265;-64
2023/06/29 03:14:28;;;;;;;25.48;21.02;;;19.20;99.90;;;;;;5033834;28;20179;-63
2023/06/29 03:16:54;;;;;;;24.15;20.40;;;19.20;99.90;;;;;;5033703;28;20219;-62
2023/06/29 03:19:19;;;;;;;23.25;20.05;;;19.20;99.90;;;;;;5033698;28;20282;-63
2023/06/29 03:21:45;;;;;;;26.98;20.98;;;19.30;99.90;;;;;;5033799;28;20180;-63
2023/06/29 03:24:11;;;;;;;23.90;19.65;;;19.20;99.90;;;;;;5016094;28;20249;-63
2023/06/29 03:26:36;;;;;;;22.85;19.98;;;19.30;99.90;;;;;;5033541;28;20208;-63
2023/06/29 03:29:02;;;;;;;23.02;19.70;;;19.30;99.90;;;;;;5033540;28;20184;-63
2023/06/29 03:31:28;;;;;;;26.85;20.75;;;19.30;99.90;;;;;;5033424;28;20224;-64
2023/06/29 03:33:56;;;;;;;25.70;21.05;;;19.30;99.90;;;;;;5033378;28;20184;-63
2023/06/29 03:36:22;;;;;;;23.85;20.40;;;19.20;99.90;;;;;;5033630;28;20617;-63
2023/06/29 03:38:48;;;;;;;26.33;20.23;;;19.30;99.90;;;;;;5033449;28;20210;-64
2023/06/29 03:41:13;;;;;;;23.42;20.65;;;19.20;99.90;;;;;;5033453;28;20172;-63
2023/06/29 03:43:39;;;;;;;23.88;21.20;;;19.20;99.90;;;;;;5033384;28;20251;-63
2023/06/29 03:46:05;;;;;;;24.60;20.77;;;19.20;99.90;;;;;;5033217;28;20672;-63
2023/06/29 03:48:30;;;;;;;25.75;21.40;;;19.30;99.90;;;;;;5033253;28;20176;-63
2023/06/29 03:51:00;;;;;;;28.38;22.00;;;19.30;99.90;;;;;;5033423;28;20225;-63
2023/06/29 03:53:25;;;;;;;27.35;21.05;;;19.30;99.90;;;;;;5033181;28;20644;-63
2023/06/29 03:55:51;;;;;;;25.50;21.08;;;19.30;99.90;;;;;;5033301;28;20180;-63
2023/06/29 03:58:16;;;;;;;23.67;20.50;;;19.20;99.90;;;;;;5033243;28;20180;-64
2023/06/29 04:00:42;;;;;;;24.33;20.48;;;19.30;99.90;;;;;;5033096;28;20716;-63
2023/06/29 04:03:08;;;;;;;24.70;21.17;;;19.30;99.90;;;;;;5033070;28;20168;-63
2023/06/29 04:05:34;;;;;;;23.95;21.17;;;19.40;99.90;;;;;;5033144;28;20592;-63
2023/06/29 04:08:05;;;;;;;25.10;21.13;;;19.30;99.90;;;;;;5033286;28;20533;-63
2023/06/29 04:10:32;;;;;;;25.83;21.23;;;19.30;99.90;;;;;;5033196;28;20647;-63
2023/06/29 04:12:58;;;;;;;25.92;20.70;;;19.20;99.90;;;;;;5035482;28;20176;-63
2023/06/29 04:15:23;;;;;;;25.23;20.83;;;19.20;99.90;;;;;;5037218;28;20175;-63
2023/06/29 04:17:49;;;;;;;23.27;20.77;;;19.20;99.90;;;;;;5037027;28;20235;-63
2023/06/29 04:20:15;;;;;;;24.48;21.80;;;19.20;99.90;;;;;;5037151;28;20194;-63
2023/06/29 04:22:41;;;;;;;23.98;20.33;;;19.20;99.90;;;;;;5037035;28;20270;-63
2023/06/29 04:25:07;;;;;;;24.65;20.33;;;19.20;99.90;;;;;;5043609;28;20179;-64
2023/06/29 04:27:34;;;;;;;23.60;21.10;;;19.20;99.90;;;;;;5056712;28;20214;-64
2023/06/29 04:30:00;;;;;;;27.13;21.92;;;19.20;99.90;;;;;;5056502;28;20528;-64
2023/06/29 04:32:26;;;;;;;26.98;21.08;;;19.20;99.90;;;;;;5056481;28;20317;-63
2023/06/29 04:34:51;;;;;;;25.25;20.55;;;19.10;99.90;;;;;;5054548;28;20262;-64
2023/06/29 04:37:17;;;;;;;27.98;22.33;;;19.10;99.90;;;;;;5054676;28;20189;-64
2023/06/29 04:39:43;;;;;;;28.02;21.27;;;19.20;99.90;;;;;;5056504;28;20179;-63
2023/06/29 04:42:13;;;;;;;25.65;21.58;;;19.20;99.90;;;;;;5056557;28;20168;-65
2023/06/29 04:44:43;;;;;;;29.27;21.75;;;19.20;99.90;;;;;;5056424;28;20186;-64
2023/06/29 04:47:09;;;;;;;32.88;22.35;;;19.20;99.90;;;;;;5056481;28;20286;-64
2023/06/29 04:49:39;;;;;;;32.03;21.48;;;19.30;99.90;;;;;;5056101;28;20648;-64
2023/06/29 04:52:06;;;;;;;27.80;21.40;;;19.30;99.90;;;;;;5056330;28;20188;-64
2023/06/29 04:54:32;;;;;;;32.08;20.95;;;19.30;99.90;;;;;;5056449;28;20498;-63
2023/06/29 04:56:59;;;;;;;32.03;22.17;;;19.30;99.90;;;;;;5056377;28;20210;-64
2023/06/29 04:59:26;;;;;;;32.05;21.23;;;19.40;99.90;;;;;;5056027;28;20532;-64
2023/06/29 05:01:52;;;;;;;28.85;22.33;;;19.40;99.90;;;;;;5056329;28;20709;-63
2023/06/29 05:04:17;;;;;;;32.20;22.90;;;19.40;99.90;;;;;;5055821;28;20172;-63
2023/06/29 05:06:43;;;;;;;30.00;22.58;;;19.40;99.90;;;;;;5055891;28;20211;-63
2023/06/29 05:09:09;;;;;;;29.67;22.83;;;19.50;99.90;;;;;;5056252;28;20187;-63
2023/06/29 05:11:35;;;;;;;28.58;22.88;;;19.40;99.90;;;;;;5038080;28;20634;-63
2023/06/29 05:14:01;;;;;;;26.02;22.38;;;19.50;99.90;;;;;;5055889;28;20182;-63
2023/06/29 05:16:26;;;;;;;27.65;22.17;;;19.50;99.90;;;;;;5056094;28;20625;-63
2023/06/29 05:18:52;;;;;;;27.33;22.88;;;19.60;99.90;;;;;;5056061;28;20334;-63
2023/06/29 05:21:18;;;;;;;27.25;22.83;;;19.60;99.90;;;;;;5055976;28;20199;-63
2023/06/29 05:23:43;;;;;;;29.33;23.70;;;19.60;99.90;;;;;;5055807;28;20595;-63
2023/06/29 05:26:09;;;;;;;28.30;23.45;;;19.70;99.90;;;;;;5055627;28;20837;-63
2023/06/29 05:28:35;;;;;;;28.83;23.38;;;19.60;99.90;;;;;;5055523;28;20652;-63
2023/06/29 05:31:01;;;;;;;27.17;23.75;;;19.70;99.90;;;;;;5055883;28;20206;-63
2023/06/29 05:33:27;;;;;;;27.20;22.80;;;19.80;99.90;;;;;;5055672;28;20179;-63
2023/06/29 05:35:53;;;;;;;30.73;23.70;;;19.80;99.90;;;;;;5055566;28;20187;-63
2023/06/29 05:38:18;;;;;;;28.67;22.75;;;19.90;99.90;;;;;;5055360;28;20686;-63
2023/06/29 05:40:44;;;;;;;28.70;24.30;;;20.10;99.90;;;;;;5055418;28;20226;-63
2023/06/29 05:43:10;;;;;;;27.90;23.85;;;20.10;99.90;;;;;;5055528;28;20562;-63
2023/06/29 05:45:36;;;;;;;31.13;23.08;;;20.10;99.90;;;;;;5055167;28;20635;-63
2023/06/29 05:48:02;;;;;;;28.00;23.20;;;20.10;99.90;;;;;;5055404;28;20206;-63
2023/06/29 05:50:27;;;;;;;30.52;24.27;;;20.20;99.90;;;;;;5055358;28;20641;-63
2023/06/29 05:52:53;;;;;;;27.58;23.20;;;20.00;99.90;;;;;;5055337;28;20328;-63
2023/06/29 05:55:19;;;;;;;28.38;23.30;;;20.00;99.90;;;;;;5055177;28;20183;-63
2023/06/29 05:57:45;;;;;;;26.42;22.15;;;20.10;99.90;;;;;;5054949;28;20274;-63
2023/06/29 06:00:12;;;;;;;27.85;22.90;;;20.20;99.90;;;;;;5055209;28;20280;-63
2023/06/29 06:02:39;;;;;;;25.48;22.40;;;20.20;99.90;;;;;;5055095;28;20179;-63
2023/06/29 06:05:07;;;;;;;26.02;22.02;;;20.20;99.90;;;;;;5055098;28;20232;-63
2023/06/29 06:07:33;;;;;;;27.05;23.63;;;20.20;99.90;;;;;;5054905;28;20301;-63
2023/06/29 06:09:59;;;;;;;24.17;21.05;;;20.10;99.90;;;;;;5055000;28;20265;-63
2023/06/29 06:12:25;;;;;;;28.40;22.30;;;20.10;99.90;;;;;;5055058;28;20218;-63
2023/06/29 06:14:51;;;;;;;30.40;24.13;;;20.00;99.90;;;;;;5054973;28;20304;-62
2023/06/29 06:17:17;;;;;;;28.77;23.00;;;20.10;99.90;;;;;;5054652;28;20306;-63
2023/06/29 06:19:43;;;;;;;29.52;24.00;;;20.00;99.90;;;;;;5054872;28;20176;-63
2023/06/29 06:22:08;;;;;;;28.67;23.70;;;19.90;99.90;;;;;;5054717;28;20225;-63
2023/06/29 06:24:34;;;;;;;25.55;22.45;;;19.80;99.90;;;;;;5054621;28;20183;-63
2023/06/29 06:27:01;;;;;;;26.48;23.15;;;19.80;99.90;;;;;;5054353;28;20195;-63
2023/06/29 06:29:27;;;;;;;24.75;21.27;;;19.80;99.90;;;;;;5054642;28;20640;-63
2023/06/29 06:31:53;;;;;;;27.20;22.80;;;19.90;99.90;;;;;;5054550;28;20191;-63
2023/06/29 06:34:19;;;;;;;27.67;22.45;;;19.90;99.90;;;;;;5054300;28;20175;-63
2023/06/29 06:36:48;;;;;;;24.77;21.70;;;19.90;99.90;;;;;;5054320;28;20175;-63
2023/06/29 06:39:14;;;;;;;27.50;22.92;;;19.90;99.90;;;;;;5054225;28;20172;-63
2023/06/29 06:41:41;;;;;;;30.27;22.88;;;19.90;99.90;;;;;;5054319;28;20172;-63
2023/06/29 06:44:07;;;;;;;28.95;23.25;;;20.00;99.90;;;;;;5054407;28;20229;-63
2023/06/29 06:46:33;;;;;;;27.38;23.05;;;20.00;99.90;;;;;;5054290;28;20215;-63
2023/06/29 06:48:59;;;;;;;27.23;23.10;;;20.20;99.90;;;;;;5054202;28;20721;-63
2023/06/29 06:51:25;;;;;;;28.00;22.60;;;20.20;99.90;;;;;;5054117;28;20305;-62
2023/06/29 06:53:51;;;;;;;25.52;22.25;;;20.30;99.90;;;;;;5054292;28;20214;-63
2023/06/29 06:56:17;;;;;;;26.98;21.58;;;20.30;99.90;;;;;;5053833;28;20186;-62
2023/06/29 06:58:43;;;;;;;26.42;21.33;;;20.20;99.90;;;;;;5054108;28;20176;-62
2023/06/29 07:01:09;;;;;;;28.85;21.30;;;20.30;99.90;;;;;;5054112;28;20540;-62
2023/06/29 07:03:34;;;;;;;28.20;22.13;;;20.40;99.90;;;;;;5053844;28;20258;-62
2023/06/29 07:06:01;;;;;;;26.02;21.08;;;20.60;99.90;;;;;;5053782;28;20291;-62
2023/06/29 07:08:27;;;;;;;36.78;23.35;;;20.70;99.90;;;;;;5053810;28;20180;-62
2023/06/29 07:10:53;;;;;;;26.80;20.90;;;20.70;99.90;;;;;;5053660;28;20282;-62
2023/06/29 07:13:19;;;;;;;26.08;20.92;;;20.90;99.90;;;;;;5053670;28;20191;-62
2023/06/29 07:15:46;;;;;;;24.83;21.30;;;20.90;99.90;;;;;;5053847;28;20185;-63
2023/06/29 07:18:12;;;;;;;24.77;20.98;;;21.00;99.90;;;;;;5053492;28;20230;-62
2023/06/29 07:20:37;;;;;;;25.45;20.88;;;20.90;99.90;;;;;;5036012;28;20172;-62
2023/06/29 07:23:03;;;;;;;23.15;19.60;;;21.00;99.90;;;;;;5053512;28;20186;-62
2023/06/29 07:25:29;;;;;;;24.33;20.80;;;21.00;99.90;;;;;;5053220;28;20210;-62
2023/06/29 07:27:54;;;;;;;25.35;19.35;;;20.90;99.90;;;;;;5053723;28;20179;-62
2023/06/29 07:30:20;;;;;;;23.52;19.58;;;20.90;99.90;;;;;;5053527;28;20179;-62
2023/06/29 07:32:46;;;;;;;20.35;18.15;;;21.00;99.90;;;;;;5053464;28;20722;-63
2023/06/29 07:35:12;;;;;;;24.55;19.48;;;21.00;99.90;;;;;;5053381;28;20605;-63
2023/06/29 07:37:38;;;;;;;23.38;19.30;;;21.00;99.90;;;;;;5053479;28;20263;-63
2023/06/29 07:40:05;;;;;;;23.42;19.70;;;21.00;99.90;;;;;;5053184;28;20172;-63
2023/06/29 07:42:31;;;;;;;21.75;18.65;;;21.00;99.90;;;;;;5053267;28;20180;-63
2023/06/29 07:44:56;;;;;;;24.67;19.00;;;21.00;99.90;;;;;;5053095;28;20266;-63
2023/06/29 07:47:22;;;;;;;20.52;18.13;;;21.10;99.90;;;;;;5052647;28;20207;-63
2023/06/29 07:49:48;;;;;;;23.02;18.65;;;21.10;99.90;;;;;;5053199;28;20510;-63
2023/06/29 07:52:14;;;;;;;22.58;18.30;;;21.20;99.90;;;;;;5053110;28;20262;-63
2023/06/29 07:54:39;;;;;;;23.33;18.75;;;21.10;99.90;;;;;;5052903;28;20176;-62
2023/06/29 07:57:05;;;;;;;22.70;18.95;;;21.20;99.90;;;;;;5053266;28;20269;-62
2023/06/29 07:59:31;;;;;;;23.58;18.90;;;21.10;99.90;;;;;;5053166;28;20522;-62
2023/06/29 08:01:56;;;;;;;24.42;19.35;;;21.10;99.90;;;;;;5053203;28;20600;-62
2023/06/29 08:04:22;;;;;;;22.52;20.10;;;21.20;99.90;;;;;;5053008;28;20183;-62
2023/06/29 08:06:48;;;;;;;20.02;17.85;;;21.20;99.90;;;;;;5052967;28;20238;-62
2023/06/29 08:09:14;;;;;;;22.58;18.33;;;21.40;99.90;;;;;;5052878;28;20175;-62
2023/06/29 08:11:40;;;;;;;23.75;19.13;;;21.40;99.90;;;;;;5053072;28;20175;-63
2023/06/29 08:14:06;;;;;;;22.45;18.20;;;21.50;99.90;;;;;;5053034;28;20190;-62
2023/06/29 08:16:31;;;;;;;25.88;18.98;;;21.50;99.90;;;;;;5053092;28;20518;-63
2023/06/29 08:18:59;;;;;;;21.98;18.88;;;21.70;99.90;;;;;;5052571;28;20234;-63
2023/06/29 08:21:25;;;;;;;23.25;18.40;;;21.80;99.90;;;;;;5052892;28;20176;-62
2023/06/29 08:23:50;;;;;;;22.85;18.02;;;21.90;99.90;;;;;;5052870;28;20220;-62
2023/06/29 08:26:17;;;;;;;20.83;17.42;;;22.00;99.90;;;;;;5052817;28;20253;-63
2023/06/29 08:28:43;;;;;;;21.27;17.98;;;22.10;99.90;;;;;;5052883;28;20175;-63
2023/06/29 08:31:09;;;;;;;20.83;17.45;;;22.20;99.90;;;;;;5052888;28;20178;-62
2023/06/29 08:33:34;;;;;;;22.63;18.05;;;22.30;99.90;;;;;;5052851;28;20194;-63
2023/06/29 08:36:00;;;;;;;20.90;17.08;;;22.40;99.90;;;;;;5052775;28;20178;-62
2023/06/29 08:38:26;;;;;;;21.42;18.02;;;22.50;99.90;;;;;;5052574;28;20207;-63
2023/06/29 08:40:52;;;;;;;22.52;18.90;;;22.50;99.90;;;;;;5052593;28;20607;-63
2023/06/29 08:43:18;;;;;;;25.25;19.15;;;22.60;99.90;;;;;;5052812;28;20216;-62
2023/06/29 08:45:45;;;;;;;24.58;19.50;;;22.70;99.90;;;;;;5052753;28;20246;-63
2023/06/29 08:48:13;;;;;;;26.50;19.45;;;22.80;99.90;;;;;;5052598;28;20591;-62
2023/06/29 08:50:44;;;;;;;22.10;19.45;;;22.80;99.90;;;;;;5052554;28;20171;-63
2023/06/29 08:53:12;;;;;;;22.80;18.60;;;22.90;99.90;;;;;;5053208;28;20171;-62
2023/06/29 08:55:39;;;;;;;24.15;19.08;;;23.00;99.90;;;;;;5052755;28;20186;-62
2023/06/29 08:58:05;;;;;;;25.38;19.00;;;23.20;99.90;;;;;;5053952;28;20206;-62
2023/06/29 09:00:31;;;;;;;23.88;20.15;;;23.40;99.90;;;;;;5056363;28;20203;-62
2023/06/29 09:02:57;;;;;;;25.98;19.90;;;23.60;99.90;;;;;;5056253;28;20175;-62
2023/06/29 09:05:22;;;;;;;25.38;20.60;;;23.50;99.90;;;;;;5056089;28;20624;-63
2023/06/29 09:07:50;;;;;;;23.48;19.63;;;23.70;99.90;;;;;;5056206;28;20225;-63
2023/06/29 09:10:16;;;;;;;27.38;20.27;;;23.80;99.90;;;;;;5056172;28;20175;-63
2023/06/29 09:12:41;;;;;;;27.23;21.67;;;23.90;99.90;;;;;;5056116;28;20663;-63
2023/06/29 09:15:11;;;;;;;28.63;21.40;;;23.90;99.90;;;;;;5056048;28;20187;-63
2023/06/29 09:17:37;;;;;;;26.63;20.90;;;24.10;99.90;;;;;;5055566;28;20769;-63
2023/06/29 09:20:13;;;;;;;25.85;21.98;;;24.00;99.90;;;;;;5055672;28;20232;-62
2023/06/29 09:22:39;;;;;;;27.25;22.02;;;24.10;99.90;;;;;;5037987;28;20643;-63
2023/06/29 09:25:06;;;;;;;28.08;22.23;;;24.20;99.90;;;;;;5055906;28;20262;-62
2023/06/29 09:27:34;;;;;;;25.98;22.42;;;24.40;99.90;;;;;;5055749;28;20248;-62
2023/06/29 09:30:02;;;;;;;27.75;21.80;;;24.50;99.90;;;;;;5055648;28;20219;-63
2023/06/29 09:32:35;;;;;;;29.15;23.67;;;24.60;99.90;;;;;;5055642;28;20254;-62
2023/06/29 09:35:08;;;;;;;27.27;22.23;;;24.60;99.90;;;;;;5055940;28;20187;-62
2023/06/29 09:37:35;;;;;;;27.52;22.35;;;24.80;99.90;;;;;;5055657;28;20180;-62
2023/06/29 09:40:05;;;;;;;27.45;21.73;;;24.90;99.90;;;;;;5055607;28;20167;-63
2023/06/29 09:42:36;;;;;;;26.92;22.42;;;24.90;99.90;;;;;;5055647;28;20207;-63
2023/06/29 09:45:04;;;;;;;27.90;22.95;;;24.80;99.90;;;;;;5055388;28;20171;-62
2023/06/29 09:47:30;;;;;;;27.38;23.75;;;24.70;99.90;;;;;;5055283;28;20211;-62
2023/06/29 09:49:56;;;;;;;28.10;23.17;;;24.50;99.90;;;;;;5055363;28;20278;-62
2023/06/29 09:52:22;;;;;;;27.83;23.60;;;24.40;99.90;;;;;;5055451;28;20258;-62
2023/06/29 09:54:51;;;;;;;32.00;24.25;;;24.30;99.90;;;;;;5055516;28;20194;-62
2023/06/29 09:57:18;;;;;;;31.83;24.05;;;24.50;99.90;;;;;;5055195;28;20648;-62
2023/06/29 09:59:44;;;;;;;31.38;23.83;;;24.50;99.90;;;;;;5055005;28;20213;-62
2023/06/29 10:02:11;;;;;;;30.52;23.95;;;24.70;99.90;;;;;;5055213;28;20544;-62
2023/06/29 10:04:40;;;;;;;28.38;23.33;;;24.50;99.90;;;;;;5055203;28;20182;-62
2023/06/29 10:07:09;;;;;;;28.33;24.25;;;24.40;99.90;;;;;;5055086;28;20214;-62
2023/06/29 10:09:41;;;;;;;30.00;24.95;;;24.20;99.90;;;;;;5054061;28;20214;-62
2023/06/29 10:12:11;;;;;;;30.73;23.75;;;23.80;99.90;;;;;;5054800;28;20175;-62
2023/06/29 10:14:38;;;;;;;27.75;23.38;;;23.80;99.90;;;;;;5054861;28;20486;-63
2023/06/29 10:17:09;;;;;;;32.33;25.17;;;23.70;99.90;;;;;;5054694;28;20207;-62
2023/06/29 10:19:36;;;;;;;31.40;24.67;;;23.70;99.90;;;;;;5054833;28;20167;-62
2023/06/29 10:22:12;;;;;;;28.75;23.55;;;23.60;99.90;;;;;;5054606;28;20176;-62
2023/06/29 10:24:45;;;;;;;31.30;24.77;;;23.60;99.90;;;;;;5054683;28;20178;-62
2023/06/29 10:27:12;;;;;;;32.55;24.95;;;23.50;99.90;;;;;;5054653;28;20253;-62
2023/06/29 10:29:50;;;;;;;32.53;25.58;;;23.70;99.90;;;;;;5054399;28;20191;-62
2023/06/29 10:32:33;;;;;;;29.95;23.88;;;23.70;99.90;;;;;;5054517;28;20250;-62
2023/06/29 10:35:01;;;;;;;35.42;25.42;;;23.60;99.90;;;;;;5054501;28;20167;-62
2023/06/29 10:37:37;;;;;;;36.05;27.38;;;23.70;99.90;;;;;;5054227;28;20309;-62
2023/06/29 10:40:17;;;;;;;32.20;25.85;;;24.00;99.90;;;;;;5054219;28;20527;-62
2023/06/29 10:42:42;;;;;;;32.70;26.15;;;24.00;99.90;;;;;;5054088;28;20171;-62
2023/06/29 10:45:20;;;;;;;32.55;25.63;;;24.10;99.90;;;;;;5054195;28;20167;-62
2023/06/29 10:47:58;;;;;;;31.75;25.15;;;24.20;99.90;;;;;;5053906;28;20297;-62
2023/06/29 10:50:50;;;;;;;34.35;26.73;;;24.20;99.90;;;;;;5054337;28;20214;-63
2023/06/29 10:53:17;;;;;;;32.50;25.70;;;23.90;99.90;;;;;;5054083;28;20179;-62
2023/06/29 10:55:44;;;;;;;29.35;24.33;;;23.90;99.90;;;;;;5053926;28;20237;-62
2023/06/29 10:58:13;;;;;;;33.03;26.67;;;23.60;99.90;;;;;;5053844;28;20163;-62
2023/06/29 11:00:40;;;;;;;35.05;27.30;;;23.50;99.90;;;;;;5054051;28;20178;-63
2023/06/29 11:03:07;;;;;;;31.05;25.58;;;23.30;99.90;;;;;;5053946;28;20171;-62
2023/06/29 11:05:33;;;;;;;33.05;25.95;;;23.30;99.90;;;;;;5053833;28;20206;-63
2023/06/29 11:07:59;;;;;;;33.13;26.92;;;23.50;99.90;;;;;;5036018;28;20175;-62
2023/06/29 11:10:25;;;;;;;31.63;26.70;;;23.70;99.90;;;;;;5053708;28;20206;-63
2023/06/29 11:12:54;;;;;;;32.40;26.70;;;23.70;99.90;;;;;;5053627;28;20175;-63
2023/06/29 11:15:21;;;;;;;33.47;26.38;;;23.90;99.90;;;;;;5053801;28;20194;-63
2023/06/29 11:17:49;;;;;;;33.22;26.75;;;23.90;99.90;;;;;;5053443;28;20273;-62
2023/06/29 11:20:17;;;;;;;36.25;27.25;;;23.90;99.90;;;;;;5053744;28;20656;-62
2023/06/29 11:22:43;;;;;;;34.80;26.63;;;23.80;99.90;;;;;;5053438;28;20182;-62
2023/06/29 11:25:12;;;;;;;30.25;26.17;;;23.70;99.90;;;;;;5053468;28;20183;-63
2023/06/29 11:27:38;;;;;;;32.83;26.17;;;23.70;99.90;;;;;;5053247;28;20207;-63
2023/06/29 11:30:09;;;;;;;31.08;25.23;;;23.60;99.90;;;;;;5053561;28;20225;-62
2023/06/29 11:32:35;;;;;;;31.70;25.23;;;23.50;99.90;;;;;;5053459;28;20175;-63
2023/06/29 11:35:09;;;;;;;29.38;24.67;;;23.40;99.90;;;;;;5053378;28;20179;-63
2023/06/29 11:37:36;;;;;;;28.83;24.30;;;23.40;99.90;;;;;;5053339;28;20182;-63
2023/06/29 11:40:14;;;;;;;33.58;25.75;;;23.30;99.90;;;;;;5053422;28;20640;-63
2023/06/29 11:42:42;;;;;;;34.78;25.95;;;23.30;99.90;;;;;;5035568;28;20175;-63
2023/06/29 11:45:08;;;;;;;30.50;25.13;;;23.30;99.90;;;;;;5053229;28;20506;-62
2023/06/29 11:47:35;;;;;;;34.20;26.88;;;23.20;99.90;;;;;;5053072;28;20229;-63
2023/06/29 11:50:03;;;;;;;32.70;26.33;;;23.30;99.90;;;;;;5053205;28;20635;-63
2023/06/29 11:52:32;;;;;;;32.92;24.95;;;23.30;99.90;;;;;;5053112;28;20199;-64
2023/06/29 11:55:04;;;;;;;31.50;25.42;;;23.30;99.90;;;;;;5053245;28;20175;-63
2023/06/29 11:57:33;;;;;;;28.55;22.60;;;23.30;99.90;;;;;;5053178;28;20202;-63
2023/06/29 12:00:00;;;;;;;21.25;16.92;;;23.20;99.90;;;;;;5053072;28;20663;-63
2023/06/29 12:02:26;;;;;;;15.65;13.43;;;23.00;99.90;;;;;;5053076;28;20179;-63
2023/06/29 12:04:59;;;;;;;17.98;13.82;;;22.80;99.90;;;;;;5052921;28;20265;-64
2023/06/29 12:07:45;;;;;;;17.00;13.38;;;22.40;99.90;;;;;;5053131;28;20206;-63
2023/06/29 12:10:19;;;;;;;16.67;14.02;;;22.50;99.90;;;;;;5053146;28;20175;-63
2023/06/29 12:12:48;;;;;;;15.32;12.30;;;22.60;99.90;;;;;;5053021;28;20167;-63
2023/06/29 12:15:18;;;;;;;13.27;11.27;;;22.70;99.90;;;;;;5052735;28;20163;-63
2023/06/29 12:17:50;;;;;;;14.05;12.32;;;22.60;99.90;;;;;;5052944;28;20222;-63
2023/06/29 12:20:17;;;;;;;15.02;11.30;;;22.70;99.90;;;;;;5053144;28;20195;-63
2023/06/29 12:22:44;;;;;;;14.15;11.07;;;22.70;99.90;;;;;;5052983;28;20171;-63
2023/06/29 12:25:15;;;;;;;13.73;11.68;;;22.50;99.90;;;;;;5052937;28;20258;-63
2023/06/29 12:27:42;;;;;;;12.70;11.10;;;22.30;99.90;;;;;;5052767;28;20245;-63